sensor_id;sensor_type;location;lat;lon;timestamp;pressure;altitude;pressure_sealevel;temperature;humidity
48390;BME280;34643;47.964;7.982;2023-03-25T00:04:53;96286.91;;;18.37;62.93
48390;BME280;34643;47.964;7.982;2023-03-25T00:09:54;96292.16;;;18.37;62.83
48390;BME280;34643;47.964;7.982;2023-03-25T00:14:54;96293.81;;;18.38;62.55
48390;BME280;34643;47.964;7.982;2023-03-25T00:19:55;96285.28;;;18.36;62.26
48390;BME280;34643;47.964;7.982;2023-03-25T00:24:55;96274.00;;;18.35;61.97
48390;BME280;34643;47.964;7.982;2023-03-25T00:29:55;96260.78;;;18.37;61.93
48390;BME280;34643;47.964;7.982;2023-03-25T00:34:56;96254.88;;;18.35;61.79
48390;BME280;34643;47.964;7.982;2023-03-25T00:39:56;96249.53;;;18.36;61.94
48390;BME280;34643;47.964;7.982;2023-03-25T00:44:56;96234.81;;;18.35;61.73
48390;BME280;34643;47.964;7.982;2023-03-25T00:49:56;96239.19;;;18.35;61.76
48390;BME280;34643;47.964;7.982;2023-03-25T00:54:57;96217.47;;;18.34;62.35
48390;BME280;34643;47.964;7.982;2023-03-25T00:59:57;96223.53;;;18.35;62.32
48390;BME280;34643;47.964;7.982;2023-03-25T01:04:57;96237.56;;;18.34;61.88
48390;BME280;34643;47.964;7.982;2023-03-25T01:09:59;96244.91;;;18.50;62.08
48390;BME280;34643;47.964;7.982;2023-03-25T01:14:59;96258.53;;;18.63;61.29
48390;BME280;34643;47.964;7.982;2023-03-25T01:19:59;96245.59;;;18.61;61.57
48390;BME280;34643;47.964;7.982;2023-03-25T01:25:00;96245.72;;;18.60;61.70
48390;BME280;34643;47.964;7.982;2023-03-25T01:30:00;96248.19;;;18.61;61.74
48390;BME280;34643;47.964;7.982;2023-03-25T01:35:00;96257.84;;;18.61;61.98
48390;BME280;34643;47.964;7.982;2023-03-25T01:40:01;96255.91;;;18.63;62.00
48390;BME280;34643;47.964;7.982;2023-03-25T01:45:38;96250.94;;;18.60;62.04
48390;BME280;34643;47.964;7.982;2023-03-25T01:50:33;96277.66;;;18.64;62.08
48390;BME280;34643;47.964;7.982;2023-03-25T01:55:35;96236.66;;;18.64;62.44
48390;BME280;34643;47.964;7.982;2023-03-25T02:00:39;96235.56;;;18.67;62.37
48390;BME280;34643;47.964;7.982;2023-03-25T02:11:15;96228.81;;;18.64;62.70
48390;BME280;34643;47.964;7.982;2023-03-25T02:42:39;96297.03;;;18.61;63.18
48390;BME280;34643;47.964;7.982;2023-03-25T02:47:42;96309.81;;;18.54;63.17
48390;BME280;34643;47.964;7.982;2023-03-25T02:52:48;96312.03;;;18.59;63.39
48390;BME280;34643;47.964;7.982;2023-03-25T02:57:50;96302.53;;;18.58;63.24
48390;BME280;34643;47.964;7.982;2023-03-25T03:02:56;96287.81;;;18.57;62.99
48390;BME280;34643;47.964;7.982;2023-03-25T03:18:13;96306.00;;;18.58;63.01
48390;BME280;34643;47.964;7.982;2023-03-25T03:23:26;96315.59;;;18.58;63.26
48390;BME280;34643;47.964;7.982;2023-03-25T03:28:29;96316.44;;;18.58;63.18
48390;BME280;34643;47.964;7.982;2023-03-25T03:33:36;96312.84;;;18.59;63.18
48390;BME280;34643;47.964;7.982;2023-03-25T03:38:47;96319.63;;;18.62;63.47
48390;BME280;34643;47.964;7.982;2023-03-25T03:43:50;96320.56;;;18.61;63.50
48390;BME280;34643;47.964;7.982;2023-03-25T03:48:55;96333.78;;;18.59;63.60
48390;BME280;34643;47.964;7.982;2023-03-25T03:53:57;96330.91;;;18.62;63.72
48390;BME280;34643;47.964;7.982;2023-03-25T03:58:59;96329.94;;;18.64;63.81
48390;BME280;34643;47.964;7.982;2023-03-25T04:04:02;96329.34;;;18.60;63.87
48390;BME280;34643;47.964;7.982;2023-03-25T04:09:12;96314.78;;;18.57;63.86
48390;BME280;34643;47.964;7.982;2023-03-25T04:14:17;96325.78;;;18.61;63.91
48390;BME280;34643;47.964;7.982;2023-03-25T04:19:18;96328.66;;;18.58;63.94
48390;BME280;34643;47.964;7.982;2023-03-25T04:24:18;96320.41;;;18.53;64.15
48390;BME280;34643;47.964;7.982;2023-03-25T04:29:18;96326.06;;;18.58;63.92
48390;BME280;34643;47.964;7.982;2023-03-25T04:34:18;96322.06;;;18.54;64.04
48390;BME280;34643;47.964;7.982;2023-03-25T04:39:19;96332.38;;;18.55;64.20
48390;BME280;34643;47.964;7.982;2023-03-25T04:44:23;96340.34;;;18.54;63.96
48390;BME280;34643;47.964;7.982;2023-03-25T04:49:25;96327.97;;;18.56;64.13
48390;BME280;34643;47.964;7.982;2023-03-25T04:54:25;96346.16;;;18.57;64.29
48390;BME280;34643;47.964;7.982;2023-03-25T04:59:26;96354.13;;;18.56;64.35
48390;BME280;34643;47.964;7.982;2023-03-25T05:04:26;96361.81;;;18.57;64.01
48390;BME280;34643;47.964;7.982;2023-03-25T05:09:26;96359.59;;;18.53;64.35
48390;BME280;34643;47.964;7.982;2023-03-25T05:14:28;96350.81;;;18.54;64.28
48390;BME280;34643;47.964;7.982;2023-03-25T05:19:28;96362.94;;;18.55;64.34
48390;BME280;34643;47.964;7.982;2023-03-25T05:24:29;96371.47;;;18.57;64.23
48390;BME280;34643;47.964;7.982;2023-03-25T05:29:29;96368.97;;;18.55;64.20
48390;BME280;34643;47.964;7.982;2023-03-25T05:34:32;96371.97;;;18.51;64.38
48390;BME280;34643;47.964;7.982;2023-03-25T05:39:33;96358.09;;;18.50;64.48
48390;BME280;34643;47.964;7.982;2023-03-25T05:44:33;96354.66;;;18.50;64.17
48390;BME280;34643;47.964;7.982;2023-03-25T05:49:34;96361.13;;;18.55;64.25
48390;BME280;34643;47.964;7.982;2023-03-25T05:54:34;96354.81;;;18.58;64.22
48390;BME280;34643;47.964;7.982;2023-03-25T05:59:38;96349.59;;;18.58;64.29
48390;BME280;34643;47.964;7.982;2023-03-25T06:04:39;96333.94;;;18.68;63.74
48390;BME280;34643;47.964;7.982;2023-03-25T06:09:43;96324.13;;;18.60;64.21
48390;BME280;34643;47.964;7.982;2023-03-25T06:14:45;96338.44;;;18.87;63.59
48390;BME280;34643;47.964;7.982;2023-03-25T06:19:48;96336.00;;;18.74;64.03
48390;BME280;34643;47.964;7.982;2023-03-25T06:24:48;96337.41;;;18.78;64.21
48390;BME280;34643;47.964;7.982;2023-03-25T06:29:49;96334.66;;;18.79;64.06
48390;BME280;34643;47.964;7.982;2023-03-25T06:34:49;96344.75;;;18.84;64.06
48390;BME280;34643;47.964;7.982;2023-03-25T06:39:49;96340.81;;;18.69;64.16
48390;BME280;34643;47.964;7.982;2023-03-25T06:44:54;96332.94;;;18.59;64.40
48390;BME280;34643;47.964;7.982;2023-03-25T06:50:12;96339.00;;;18.59;63.95
48390;BME280;34643;47.964;7.982;2023-03-25T06:55:12;96322.06;;;18.54;63.91
48390;BME280;34643;47.964;7.982;2023-03-25T07:00:13;96329.59;;;18.47;64.11
48390;BME280;34643;47.964;7.982;2023-03-25T07:05:13;96323.41;;;18.48;63.82
48390;BME280;34643;47.964;7.982;2023-03-25T07:10:14;96330.69;;;18.45;63.76
48390;BME280;34643;47.964;7.982;2023-03-25T07:15:14;96324.09;;;18.40;63.78
48390;BME280;34643;47.964;7.982;2023-03-25T07:20:17;96325.16;;;18.38;63.55
48390;BME280;34643;47.964;7.982;2023-03-25T07:25:17;96323.50;;;18.37;63.44
48390;BME280;34643;47.964;7.982;2023-03-25T07:30:17;96311.41;;;18.36;63.38
48390;BME280;34643;47.964;7.982;2023-03-25T07:35:18;96305.38;;;18.35;63.07
48390;BME280;34643;47.964;7.982;2023-03-25T07:40:18;96309.53;;;16.89;54.32
48390;BME280;34643;47.964;7.982;2023-03-25T07:45:18;96311.78;;;17.58;58.20
48390;BME280;34643;47.964;7.982;2023-03-25T07:50:20;96325.34;;;17.94;58.92
48390;BME280;34643;47.964;7.982;2023-03-25T07:55:20;96339.16;;;18.27;58.77
48390;BME280;34643;47.964;7.982;2023-03-25T08:00:21;96343.59;;;18.36;59.43
48390;BME280;34643;47.964;7.982;2023-03-25T08:05:21;96337.84;;;18.42;59.84
48390;BME280;34643;47.964;7.982;2023-03-25T08:10:22;96328.16;;;18.33;60.60
48390;BME280;34643;47.964;7.982;2023-03-25T08:15:38;96341.00;;;18.15;60.94
48390;BME280;34643;47.964;7.982;2023-03-25T08:20:58;96337.00;;;18.11;60.75
48390;BME280;34643;47.964;7.982;2023-03-25T08:26:00;96353.63;;;18.10;61.02
48390;BME280;34643;47.964;7.982;2023-03-25T08:31:04;96345.22;;;18.07;60.93
48390;BME280;34643;47.964;7.982;2023-03-25T08:36:04;96358.28;;;18.07;61.04
48390;BME280;34643;47.964;7.982;2023-03-25T08:41:05;96353.91;;;18.07;60.67
48390;BME280;34643;47.964;7.982;2023-03-25T08:46:05;96340.97;;;18.05;60.88
48390;BME280;34643;47.964;7.982;2023-03-25T08:51:06;96373.00;;;18.08;60.84
48390;BME280;34643;47.964;7.982;2023-03-25T08:56:08;96361.03;;;18.05;60.89
48390;BME280;34643;47.964;7.982;2023-03-25T09:01:09;96360.88;;;18.07;60.63
48390;BME280;34643;47.964;7.982;2023-03-25T09:06:11;96351.41;;;18.05;60.87
48390;BME280;34643;47.964;7.982;2023-03-25T09:11:11;96365.53;;;18.03;61.06
48390;BME280;34643;47.964;7.982;2023-03-25T09:16:11;96378.03;;;17.99;61.03
48390;BME280;34643;47.964;7.982;2023-03-25T09:21:11;96370.38;;;18.08;60.55
48390;BME280;34643;47.964;7.982;2023-03-25T09:26:12;96365.13;;;17.98;60.89
48390;BME280;34643;47.964;7.982;2023-03-25T09:31:12;96358.91;;;17.99;60.93
48390;BME280;34643;47.964;7.982;2023-03-25T09:36:13;96367.31;;;18.02;60.48
48390;BME280;34643;47.964;7.982;2023-03-25T09:41:33;96373.78;;;17.98;60.77
48390;BME280;34643;47.964;7.982;2023-03-25T09:46:40;96372.09;;;17.97;60.87
48390;BME280;34643;47.964;7.982;2023-03-25T09:51:42;96398.91;;;17.99;60.69
48390;BME280;34643;47.964;7.982;2023-03-25T09:56:43;96396.44;;;17.98;60.74
48390;BME280;34643;47.964;7.982;2023-03-25T10:28:19;96428.16;;;18.14;60.43
48390;BME280;34643;47.964;7.982;2023-03-25T10:33:41;96436.81;;;18.15;60.55
48390;BME280;34643;47.964;7.982;2023-03-25T10:38:43;96433.72;;;18.21;60.59
48390;BME280;34643;47.964;7.982;2023-03-25T10:43:46;96426.81;;;18.20;60.59
48390;BME280;34643;47.964;7.982;2023-03-25T10:48:47;96440.13;;;18.17;60.76
48390;BME280;34643;47.964;7.982;2023-03-25T10:53:49;96413.06;;;18.18;60.67
48390;BME280;34643;47.964;7.982;2023-03-25T10:58:53;96427.06;;;18.17;61.04
48390;BME280;34643;47.964;7.982;2023-03-25T11:03:55;96417.31;;;18.19;60.63
48390;BME280;34643;47.964;7.982;2023-03-25T11:14:20;96417.03;;;18.12;60.71
48390;BME280;34643;47.964;7.982;2023-03-25T11:19:24;96423.44;;;18.08;60.93
48390;BME280;34643;47.964;7.982;2023-03-25T11:24:28;96433.06;;;18.08;60.92
48390;BME280;34643;47.964;7.982;2023-03-25T11:29:29;96421.41;;;18.12;60.81
48390;BME280;34643;47.964;7.982;2023-03-25T11:34:32;96412.16;;;18.08;60.84
48390;BME280;34643;47.964;7.982;2023-03-25T11:39:38;96423.66;;;18.16;60.64
48390;BME280;34643;47.964;7.982;2023-03-25T11:44:39;96418.91;;;18.10;60.90
48390;BME280;34643;47.964;7.982;2023-03-25T11:49:40;96430.09;;;18.12;60.69
48390;BME280;34643;47.964;7.982;2023-03-25T11:54:40;96418.09;;;18.10;61.13
48390;BME280;34643;47.964;7.982;2023-03-25T11:59:42;96420.94;;;18.07;60.89
48390;BME280;34643;47.964;7.982;2023-03-25T12:04:54;96417.41;;;18.08;61.02
48390;BME280;34643;47.964;7.982;2023-03-25T12:10:03;96405.78;;;18.42;59.89
48390;BME280;34643;47.964;7.982;2023-03-25T12:25:38;96418.41;;;18.16;60.91
48390;BME280;34643;47.964;7.982;2023-03-25T12:30:47;96408.63;;;18.09;60.98
48390;BME280;34643;47.964;7.982;2023-03-25T12:41:04;96395.00;;;18.05;60.94
48390;BME280;34643;47.964;7.982;2023-03-25T12:51:24;96387.28;;;18.03;61.04
48390;BME280;34643;47.964;7.982;2023-03-25T13:01:32;96390.94;;;18.01;61.17
48390;BME280;34643;47.964;7.982;2023-03-25T13:06:44;96374.47;;;18.00;60.98
48390;BME280;34643;47.964;7.982;2023-03-25T13:11:47;96385.84;;;17.99;60.82
48390;BME280;34643;47.964;7.982;2023-03-25T13:16:50;96376.97;;;18.02;61.00
48390;BME280;34643;47.964;7.982;2023-03-25T13:21:53;96373.78;;;17.98;60.99
48390;BME280;34643;47.964;7.982;2023-03-25T13:26:56;96401.06;;;17.94;61.06
48390;BME280;34643;47.964;7.982;2023-03-25T13:31:59;96385.69;;;17.91;61.03
48390;BME280;34643;47.964;7.982;2023-03-25T13:37:16;96402.03;;;17.93;60.98
48390;BME280;34643;47.964;7.982;2023-03-25T13:42:23;96378.53;;;17.93;60.94
48390;BME280;34643;47.964;7.982;2023-03-25T13:47:36;96379.75;;;17.89;60.84
48390;BME280;34643;47.964;7.982;2023-03-25T13:52:38;96396.38;;;17.88;61.03
48390;BME280;34643;47.964;7.982;2023-03-25T14:13:29;96415.75;;;17.85;60.89
48390;BME280;34643;47.964;7.982;2023-03-25T14:18:31;96428.88;;;17.84;60.70
48390;BME280;34643;47.964;7.982;2023-03-25T14:23:31;96419.63;;;17.80;60.99
48390;BME280;34643;47.964;7.982;2023-03-25T14:28:36;96408.38;;;17.79;60.61
48390;BME280;34643;47.964;7.982;2023-03-25T14:38:57;96406.00;;;17.76;60.62
48390;BME280;34643;47.964;7.982;2023-03-25T14:44:09;96416.59;;;17.75;60.87
48390;BME280;34643;47.964;7.982;2023-03-25T14:49:17;96414.91;;;17.74;60.66
48390;BME280;34643;47.964;7.982;2023-03-25T14:54:33;96421.06;;;17.73;60.81
48390;BME280;34643;47.964;7.982;2023-03-25T14:59:36;96397.47;;;17.74;60.81
48390;BME280;34643;47.964;7.982;2023-03-25T15:04:38;96401.16;;;17.72;60.83
48390;BME280;34643;47.964;7.982;2023-03-25T15:09:49;96398.56;;;17.72;60.80
48390;BME280;34643;47.964;7.982;2023-03-25T15:14:55;96393.47;;;17.70;60.69
48390;BME280;34643;47.964;7.982;2023-03-25T15:25:09;96377.22;;;17.66;60.65
48390;BME280;34643;47.964;7.982;2023-03-25T15:30:22;96377.22;;;17.66;60.56
48390;BME280;34643;47.964;7.982;2023-03-25T15:36:06;96373.91;;;17.64;60.75
48390;BME280;34643;47.964;7.982;2023-03-25T15:41:08;96363.47;;;17.64;60.76
48390;BME280;34643;47.964;7.982;2023-03-25T15:46:31;96351.38;;;17.63;60.63
48390;BME280;34643;47.964;7.982;2023-03-25T15:51:50;96360.16;;;17.62;60.81
48390;BME280;34643;47.964;7.982;2023-03-25T15:56:53;96355.88;;;17.61;60.63
48390;BME280;34643;47.964;7.982;2023-03-25T16:01:56;96350.78;;;17.60;60.68
48390;BME280;34643;47.964;7.982;2023-03-25T16:06:59;96359.44;;;17.60;60.66
48390;BME280;34643;47.964;7.982;2023-03-25T16:12:00;96362.06;;;17.60;60.58
48390;BME280;34643;47.964;7.982;2023-03-25T16:17:02;96345.69;;;17.58;60.55
48390;BME280;34643;47.964;7.982;2023-03-25T16:22:14;96358.88;;;17.57;60.65
48390;BME280;34643;47.964;7.982;2023-03-25T16:27:20;96355.44;;;17.56;60.72
48390;BME280;34643;47.964;7.982;2023-03-25T16:32:22;96373.00;;;17.54;60.69
48390;BME280;34643;47.964;7.982;2023-03-25T16:37:23;96373.94;;;17.53;60.68
48390;BME280;34643;47.964;7.982;2023-03-25T16:42:31;96361.75;;;17.54;60.65
48390;BME280;34643;47.964;7.982;2023-03-25T16:47:33;96373.13;;;17.53;60.43
48390;BME280;34643;47.964;7.982;2023-03-25T16:52:33;96373.25;;;17.51;60.57
48390;BME280;34643;47.964;7.982;2023-03-25T16:57:37;96369.00;;;17.50;60.62
48390;BME280;34643;47.964;7.982;2023-03-25T17:02:38;96364.72;;;17.49;60.40
48390;BME280;34643;47.964;7.982;2023-03-25T17:07:40;96357.00;;;17.47;60.66
48390;BME280;34643;47.964;7.982;2023-03-25T17:12:41;96364.03;;;17.47;60.71
48390;BME280;34643;47.964;7.982;2023-03-25T17:17:43;96350.97;;;17.47;60.46
48390;BME280;34643;47.964;7.982;2023-03-25T17:22:58;96351.09;;;17.45;60.44
48390;BME280;34643;47.964;7.982;2023-03-25T17:33:35;96357.41;;;17.43;60.48
48390;BME280;34643;47.964;7.982;2023-03-25T17:38:42;96363.56;;;17.42;60.47
48390;BME280;34643;47.964;7.982;2023-03-25T17:43:47;96380.16;;;17.41;60.49
48390;BME280;34643;47.964;7.982;2023-03-25T17:48:48;96376.72;;;17.40;60.43
48390;BME280;34643;47.964;7.982;2023-03-25T17:53:49;96378.50;;;17.40;60.42
48390;BME280;34643;47.964;7.982;2023-03-25T17:58:52;96376.84;;;17.39;60.38
48390;BME280;34643;47.964;7.982;2023-03-25T18:03:55;96377.81;;;17.38;60.25
48390;BME280;34643;47.964;7.982;2023-03-25T18:08:56;96376.16;;;17.37;60.44
48390;BME280;34643;47.964;7.982;2023-03-25T18:13:57;96406.63;;;17.36;60.38
48390;BME280;34643;47.964;7.982;2023-03-25T18:18:57;96399.75;;;17.35;60.35
48390;BME280;34643;47.964;7.982;2023-03-25T18:23:58;96396.31;;;17.35;60.17
48390;BME280;34643;47.964;7.982;2023-03-25T18:28:58;96393.00;;;17.33;60.47
48390;BME280;34643;47.964;7.982;2023-03-25T18:34:01;96398.22;;;17.33;60.08
48390;BME280;34643;47.964;7.982;2023-03-25T18:39:01;96406.88;;;17.33;60.18
48390;BME280;34643;47.964;7.982;2023-03-25T18:44:03;96395.63;;;17.33;60.26
48390;BME280;34643;47.964;7.982;2023-03-25T18:49:08;96394.06;;;17.30;60.34
48390;BME280;34643;47.964;7.982;2023-03-25T18:54:10;96398.47;;;17.29;60.45
48390;BME280;34643;47.964;7.982;2023-03-25T18:59:10;96396.06;;;17.38;60.28
48390;BME280;34643;47.964;7.982;2023-03-25T19:04:14;96401.41;;;17.36;60.06
48390;BME280;34643;47.964;7.982;2023-03-25T19:09:14;96391.06;;;17.46;60.23
48390;BME280;34643;47.964;7.982;2023-03-25T19:14:17;96411.72;;;17.38;60.25
48390;BME280;34643;47.964;7.982;2023-03-25T19:19:17;96415.84;;;17.40;60.73
48390;BME280;34643;47.964;7.982;2023-03-25T19:24:18;96418.22;;;17.43;60.31
48390;BME280;34643;47.964;7.982;2023-03-25T19:29:18;96427.69;;;17.44;60.75
48390;BME280;34643;47.964;7.982;2023-03-25T19:34:18;96421.66;;;17.44;60.83
48390;BME280;34643;47.964;7.982;2023-03-25T19:39:21;96421.66;;;17.44;60.90
48390;BME280;34643;47.964;7.982;2023-03-25T19:44:22;96421.91;;;17.41;61.10
48390;BME280;34643;47.964;7.982;2023-03-25T19:49:22;96420.97;;;17.42;61.22
48390;BME280;34643;47.964;7.982;2023-03-25T19:54:22;96407.91;;;17.42;61.01
48390;BME280;34643;47.964;7.982;2023-03-25T19:59:22;96405.41;;;17.40;61.32
48390;BME280;34643;47.964;7.982;2023-03-25T20:04:23;96388.94;;;17.40;61.13
48390;BME280;34643;47.964;7.982;2023-03-25T20:09:23;96381.94;;;17.40;61.34
48390;BME280;34643;47.964;7.982;2023-03-25T20:14:24;96402.00;;;17.40;61.18
48390;BME280;34643;47.964;7.982;2023-03-25T20:19:25;96410.63;;;17.40;61.43
48390;BME280;34643;47.964;7.982;2023-03-25T20:24:25;96390.75;;;17.39;61.20
48390;BME280;34643;47.964;7.982;2023-03-25T20:29:26;96395.09;;;17.39;61.43
48390;BME280;34643;47.964;7.982;2023-03-25T20:34:26;96395.97;;;17.39;61.36
48390;BME280;34643;47.964;7.982;2023-03-25T20:39:27;96409.00;;;17.39;61.38
48390;BME280;34643;47.964;7.982;2023-03-25T20:44:27;96415.16;;;17.38;61.36
48390;BME280;34643;47.964;7.982;2023-03-25T20:49:28;96409.94;;;17.38;61.58
48390;BME280;34643;47.964;7.982;2023-03-25T20:54:28;96410.75;;;17.39;61.38
48390;BME280;34643;47.964;7.982;2023-03-25T20:59:28;96406.50;;;17.38;61.55
48390;BME280;34643;47.964;7.982;2023-03-25T21:04:30;96404.84;;;17.37;61.43
48390;BME280;34643;47.964;7.982;2023-03-25T21:09:32;96402.22;;;17.37;61.72
48390;BME280;34643;47.964;7.982;2023-03-25T21:14:32;96395.38;;;17.36;61.46
48390;BME280;34643;47.964;7.982;2023-03-25T21:19:32;96392.63;;;17.37;61.52
48390;BME280;34643;47.964;7.982;2023-03-25T21:24:33;96386.69;;;17.35;61.63
48390;BME280;34643;47.964;7.982;2023-03-25T21:29:34;96395.38;;;17.36;61.65
48390;BME280;34643;47.964;7.982;2023-03-25T21:34:36;96392.78;;;17.36;61.63
48390;BME280;34643;47.964;7.982;2023-03-25T21:39:39;96396.19;;;17.36;61.56
48390;BME280;34643;47.964;7.982;2023-03-25T21:44:39;96401.53;;;17.35;61.68
48390;BME280;34643;47.964;7.982;2023-03-25T21:49:42;96408.53;;;17.34;61.77
48390;BME280;34643;47.964;7.982;2023-03-25T21:54:42;96405.09;;;17.34;61.78
48390;BME280;34643;47.964;7.982;2023-03-25T21:59:42;96390.28;;;17.34;61.77
48390;BME280;34643;47.964;7.982;2023-03-25T22:04:42;96386.00;;;17.33;61.62
48390;BME280;34643;47.964;7.982;2023-03-25T22:09:43;96379.84;;;17.34;61.77
48390;BME280;34643;47.964;7.982;2023-03-25T22:14:43;96374.50;;;17.36;61.57
48390;BME280;34643;47.964;7.982;2023-03-25T22:19:43;96382.19;;;17.37;61.76
48390;BME280;34643;47.964;7.982;2023-03-25T22:24:46;96378.88;;;17.35;61.63
48390;BME280;34643;47.964;7.982;2023-03-25T22:29:47;96384.38;;;17.32;61.69
48390;BME280;34643;47.964;7.982;2023-03-25T22:34:48;96368.72;;;17.32;61.48
48390;BME280;34643;47.964;7.982;2023-03-25T22:39:48;96374.03;;;17.31;61.32
48390;BME280;34643;47.964;7.982;2023-03-25T22:44:49;96363.50;;;17.32;61.40
48390;BME280;34643;47.964;7.982;2023-03-25T22:49:49;96363.59;;;17.31;61.55
48390;BME280;34643;47.964;7.982;2023-03-25T22:54:49;96346.28;;;17.29;61.33
48390;BME280;34643;47.964;7.982;2023-03-25T22:59:50;96355.06;;;17.28;61.51
48390;BME280;34643;47.964;7.982;2023-03-25T23:04:51;96342.88;;;17.29;61.23
48390;BME280;34643;47.964;7.982;2023-03-25T23:09:51;96340.38;;;17.27;61.45
48390;BME280;34643;47.964;7.982;2023-03-25T23:14:55;96341.19;;;17.28;61.29
48390;BME280;34643;47.964;7.982;2023-03-25T23:19:55;96333.50;;;17.26;61.16
48390;BME280;34643;47.964;7.982;2023-03-25T23:24:55;96326.63;;;17.25;61.08
48390;BME280;34643;47.964;7.982;2023-03-25T23:30:01;96316.09;;;17.27;61.35
48390;BME280;34643;47.964;7.982;2023-03-25T23:35:02;96308.38;;;17.25;61.33
48390;BME280;34643;47.964;7.982;2023-03-25T23:40:02;96308.38;;;17.25;61.34
48390;BME280;34643;47.964;7.982;2023-03-25T23:45:06;96315.34;;;17.25;61.15
48390;BME280;34643;47.964;7.982;2023-03-25T23:50:06;96308.63;;;17.22;61.39
48390;BME280;34643;47.964;7.982;2023-03-25T23:55:07;96306.81;;;17.23;61.16
